Latest Weather Observations for Bowen Airport AWS

IDQ60801

Issued at 5:02 pm EST Thursday 27 July 2017 (issued every 30 minutes, with the page automatically refreshed every 10 minutes)

About weather observations | Map of weather stations | Latest weather observations for QLD | Other Formats
Station Details ID: 033327 Name: BOWEN AIRPORT AWS Lat: -20.02 Lon: 148.21 Height: 5.9 m
Data from the previous 72 hours. | See also: Recent months at Bowen Airport AWS
Date/Time
EST
Temp
°C
App
Temp
°C
Dew
Point
°C
Rel
Hum
%
Delta-T
°C
Wind Press
QNH
hPa
Press
MSL
hPa
Rain since
9am
mm
Dir  Spd
km/h
Gust
km/h
Spd
kts
Gust
kts
27/05:00pm 22.9 19.2 11.6 49 6.3 E 22 30 12 16 1018.7 1018.7 0.0
27/04:30pm 23.8 18.9 9.8 41 7.6 E 26 39 14 21 1018.6 1018.6 0.0
27/04:00pm 24.6 20.3 10.8 42 7.7 E 24 32 13 17 1018.5 1018.5 0.0
27/03:30pm 25.0 20.4 9.7 38 8.4 E 24 32 13 17 1018.5 1018.5 0.0
27/03:00pm 25.1 22.4 11.6 42 7.6 E 17 22 9 12 1018.8 1018.8 0.0
27/02:30pm 25.2 22.5 11.7 43 7.7 NE 17 20 9 11 1018.9 1018.9 0.0
27/02:00pm 25.1 23.5 12.7 46 7.1 E 13 19 7 10 1019.2 1019.2 0.0
27/01:30pm 25.3 23.0 11.8 43 7.7 ESE 15 17 8 9 1019.5 1019.5 0.0
27/01:00pm 25.0 22.5 11.2 42 7.7 ESE 15 20 8 11 1020.1 1020.1 0.0
27/12:30pm 24.7 21.5 11.3 43 7.5 ESE 19 24 10 13 1020.8 1020.8 0.0
27/12:00pm 24.5 21.5 11.8 45 7.2 ESE 19 26 10 14 1021.3 1021.3 0.0
27/11:30am 23.8 19.8 11.8 47 6.8 ESE 24 28 13 15 1021.8 1021.8 0.0
27/11:00am 23.5 19.6 12.2 49 6.4 SE 24 30 13 16 1022.3 1022.3 0.0
27/10:30am 23.6 20.0 13.2 52 6.0 SE 24 32 13 17 1022.5 1022.5 0.0
27/10:00am 22.2 18.7 13.3 57 5.1 SE 24 28 13 15 1022.7 1022.7 0.0
27/09:30am 22.5 19.5 13.6 57 5.2 SE 22 26 12 14 1022.7 1022.7 0.0
27/09:00am 21.5 18.8 12.9 58 4.9 SSE 19 28 10 15 1022.7 1022.7 0.0
27/08:30am 20.4 17.8 13.1 63 4.2 SSE 19 26 10 14 1022.2 1022.2 0.0
27/08:00am 19.1 17.7 13.5 70 3.2 SE 13 19 7 10 1021.7 1021.7 0.0
27/07:30am 18.2 16.5 13.7 75 2.6 SSE 15 22 8 12 1021.1 1021.1 0.0
27/07:00am 15.6 14.4 12.9 84 1.5 SE 11 15 6 8 1020.7 1020.7 0.0
27/06:30am 15.8 13.9 13.1 84 1.5 SE 15 17 8 9 1020.4 1020.4 0.0
27/06:00am 16.3 14.2 13.6 84 1.5 SE 17 20 9 11 1020.0 1020.0 0.0
27/05:30am 15.9 14.2 13.6 86 1.3 SSE 15 20 8 11 1019.6 1019.6 0.0
27/05:00am 12.7 11.7 11.1 90 0.8 S 7 11 4 6 1019.6 1019.6 0.0
27/04:30am 12.8 11.1 11.2 90 0.8 S 11 13 6 7 1019.8 1019.8 0.0
27/04:00am 13.0 11.7 11.2 89 0.9 SSE 9 11 5 6 1019.6 1019.6 0.0
27/03:30am 13.2 11.9 11.1 87 1.1 SSE 9 11 5 6 1019.7 1019.7 0.0
27/03:00am 13.7 12.4 11.2 85 1.3 SSE 9 11 5 6 1019.9 1019.9 0.0
27/02:30am 14.4 13.8 11.6 83 1.5 SSE 6 6 3 3 1020.0 1020.0 0.0
27/02:00am 15.0 13.9 10.8 76 2.2 SSE 7 9 4 5 1020.2 1020.2 0.0
27/01:30am 17.0 15.5 11.9 72 2.8 SSE 11 13 6 7 1020.5 1020.5 0.0
27/01:00am 17.1 16.5 11.6 70 3.0 SE 6 9 3 5 1020.7 1020.7 0.0
27/12:30am 17.7 16.6 11.9 69 3.2 SE 9 15 5 8 1020.8 1020.8 0.0
27/12:00am 17.9 16.6 12.4 70 3.0 SE 11 15 6 8 1020.8 1020.8 0.0
 
Date/Time
EST
Temp
°C
App
Temp
°C
Dew
Point
°C
Rel
Hum
%
Delta-T
°C
Wind Press
QNH
hPa
Press
MSL
hPa
Rain since
9am
mm
Dir  Spd
km/h
Gust
km/h
Spd
kts
Gust
kts
26/11:30pm 17.8 17.0 12.9 73 2.7 SE 9 13 5 7 1020.9 1020.9 0.0
26/11:00pm 17.2 16.3 12.7 75 2.5 SE 9 11 5 6 1020.9 1020.9 0.0
26/10:30pm 18.9 17.0 14.2 74 2.7 SE 17 20 9 11 1020.9 1020.9 0.0
26/10:00pm 19.1 17.7 14.6 75 2.6 SE 15 20 8 11 1020.8 1020.8 0.0
26/09:30pm 19.2 17.5 14.7 75 2.6 SE 17 22 9 12 1020.7 1020.7 0.0
26/09:00pm 19.7 17.9 14.5 72 3.0 ESE 17 22 9 12 1020.5 1020.5 0.0
26/08:30pm 19.6 18.2 14.6 73 2.9 ESE 15 19 8 10 1020.5 1020.5 0.0
26/08:00pm 20.2 18.2 15.4 74 2.8 ESE 20 26 11 14 1020.2 1020.2 0.0
26/07:30pm 20.5 18.4 15.1 71 3.2 ESE 20 24 11 13 1020.1 1020.1 0.0
26/07:00pm 20.7 19.0 14.6 68 3.6 SE 17 22 9 12 1020.1 1020.1 0.0
26/06:30pm 21.2 18.8 14.4 65 4.0 SE 20 24 11 13 1019.7 1019.7 0.0
26/06:00pm 21.7 19.3 14.4 63 4.3 SE 20 28 11 15 1019.4 1019.4 0.0
26/05:30pm 22.5 19.7 14.4 60 4.8 SE 22 28 12 15 1019.2 1019.2 0.0
26/05:00pm 23.5 19.7 13.7 54 5.7 SE 26 32 14 17 1018.9 1018.9 0.0
26/04:30pm 24.0 21.6 13.8 53 6.0 ESE 19 28 10 15 1018.7 1018.7 0.0
26/04:00pm 24.8 21.9 11.0 42 7.7 ESE 17 20 9 11 1018.6 1018.6 0.0
26/03:30pm 25.0 21.7 10.8 41 7.9 ESE 19 22 10 12 1018.7 1018.7 0.0
26/03:00pm 24.9 21.0 9.6 38 8.4 ESE 20 28 11 15 1018.6 1018.6 0.0
26/02:30pm 24.6 20.4 9.7 39 8.2 ESE 22 28 12 15 1018.5 1018.5 0.0
26/02:00pm 25.6 21.0 9.8 37 8.7 ESE 24 32 13 17 1018.8 1018.8 0.0
26/01:30pm 25.2 20.5 9.1 36 8.7 ESE 24 32 13 17 1019.1 1019.1 0.0
26/01:00pm 25.6 20.6 8.1 33 9.3 SE 24 30 13 16 1019.6 1019.6 0.0
26/12:30pm 25.3 20.0 8.3 34 9.1 ESE 26 32 14 17 1020.0 1020.0 0.0
26/12:00pm 25.4 21.1 10.8 40 8.2 ESE 24 32 13 17 1020.3 1020.3 0.0
26/11:30am 24.3 20.6 12.6 48 6.7 ESE 24 32 13 17 1020.7 1020.7 0.0
26/11:00am 23.7 20.3 13.6 53 5.9 SE 24 33 13 18 1021.0 1021.0 0.0
26/10:30am 23.2 20.0 14.2 57 5.3 ESE 24 32 13 17 1021.4 1021.4 0.0
26/10:00am 22.4 19.7 13.5 57 5.1 ESE 20 30 11 16 1021.6 1021.6 0.0
26/09:30am 21.4 18.0 12.5 57 5.0 SE 22 28 12 15 1021.6 1021.6 0.0
26/09:00am 20.9 18.3 12.1 57 4.9 SE 17 24 9 13 1021.5 1021.5 0.0
26/08:30am 19.2 18.7 12.5 65 3.7 S 7 11 4 6 1021.4 1021.4 0.0
26/08:00am 15.8 15.3 12.7 82 1.7 SSW 7 9 4 5 1021.2 1021.2 0.0
26/07:30am 13.7 13.1 11.8 88 1.0 SSW 6 9 3 5 1020.8 1020.8 0.0
26/07:00am 11.9 10.2 11.1 95 0.4 SW 11 13 6 7 1020.5 1020.5 0.0
26/06:30am 11.1 9.4 10.0 93 0.6 SW 9 9 5 5 1020.5 1020.5 0.0
26/06:00am 11.2 9.5 10.0 92 0.6 SW 9 9 5 5 1020.3 1020.3 0.0
26/05:30am 11.4 9.8 10.1 92 0.7 SW 9 9 5 5 1020.0 1020.0 0.0
26/05:00am 12.0 10.5 10.6 91 0.7 SW 9 9 5 5 1019.7 1019.7 0.0
26/04:30am 12.1 10.3 10.7 91 0.7 SW 11 13 6 7 1019.6 1019.6 0.0
26/04:00am 12.6 11.2 10.8 89 0.9 SSW 9 11 5 6 1019.6 1019.6 0.0
26/03:30am 15.2 14.5 12.0 81 1.7 SSE 7 9 4 5 1019.7 1019.7 0.0
26/03:00am 16.3 15.8 12.8 80 1.9 SSE 7 11 4 6 1019.9 1019.9 0.0
26/02:30am 17.1 15.2 13.0 77 2.3 SSE 15 19 8 10 1020.2 1020.2 0.0
26/02:00am 17.5 15.7 13.2 76 2.4 SE 15 19 8 10 1020.3 1020.3 0.0
26/01:30am 17.7 16.2 13.2 75 2.5 SE 13 17 7 9 1020.5 1020.5 0.0
26/01:00am 17.7 15.8 13.0 74 2.6 SE 15 19 8 10 1020.7 1020.7 0.0
26/12:30am 17.6 15.7 13.1 75 2.5 SE 15 19 8 10 1020.7 1020.7 0.0
26/12:00am 17.6 15.5 12.5 72 2.8 SE 15 20 8 11 1020.8 1020.8 0.0
 
Date/Time
EST
Temp
°C
App
Temp
°C
Dew
Point
°C
Rel
Hum
%
Delta-T
°C
Wind Press
QNH
hPa
Press
MSL
hPa
Rain since
9am
mm
Dir  Spd
km/h
Gust
km/h
Spd
kts
Gust
kts
25/11:30pm 17.8 15.7 12.3 70 3.0 SE 15 19 8 10 1020.9 1020.9 0.0
25/11:00pm 18.2 15.9 12.9 71 3.0 SE 17 22 9 12 1021.2 1021.2 0.0
25/10:30pm 18.7 16.4 14.2 75 2.6 SE 19 26 10 14 1021.1 1021.1 0.0
25/10:00pm 17.9 16.4 14.2 79 2.1 SE 15 19 8 10 1020.9 1020.9 0.0
25/09:30pm 18.9 17.2 14.8 77 2.4 SE 17 24 9 13 1020.9 1020.9 0.0
25/09:00pm 19.2 17.0 14.9 76 2.5 SE 20 24 11 13 1021.0 1021.0 0.0
25/08:30pm 19.0 17.4 15.1 78 2.3 SE 17 20 9 11 1020.9 1020.9 0.0
25/08:00pm 18.9 17.2 14.8 77 2.4 SE 17 22 9 12 1020.7 1020.7 0.0
25/07:30pm 19.5 17.4 14.7 74 2.8 SE 19 24 10 13 1020.5 1020.5 0.0
25/07:00pm 19.8 17.7 14.6 72 3.0 SE 19 22 10 12 1020.1 1020.1 0.0
25/06:30pm 21.1 18.8 15.6 71 3.3 ESE 22 30 12 16 1019.7 1019.7 0.0
25/06:00pm 21.5 18.8 15.6 69 3.5 E 24 33 13 18 1019.3 1019.3 0.0
25/05:30pm 22.0 19.2 15.4 66 3.9 E 24 35 13 19 1019.1 1019.1 0.0
25/05:00pm 22.8 19.8 14.9 61 4.7 E 24 32 13 17 1018.7 1018.7 0.0
25/04:30pm 23.7 20.0 13.8 53 5.8 ENE 26 32 14 17 1018.5 1018.5 0.0
25/04:00pm 23.8 20.4 14.8 57 5.3 ENE 26 33 14 18 1018.4 1018.4 0.0
25/03:30pm 24.4 21.3 13.3 50 6.5 E 22 30 12 16 1018.2 1018.2 0.0
25/03:00pm 25.3 22.2 13.5 48 6.9 E 22 28 12 15 1018.2 1018.2 0.0
25/02:30pm 25.0 21.4 13.2 48 6.9 E 24 32 13 17 1018.2 1018.2 0.0
25/02:00pm 25.0 21.5 13.5 48 6.7 E 24 28 13 15 1018.4 1018.4 0.0
25/01:30pm 25.2 22.5 13.4 48 6.9 E 20 28 11 15 1018.7 1018.7 0.0
25/01:00pm 25.6 23.0 13.1 46 7.3 ESE 19 24 10 13 1019.1 1019.1 0.0
25/12:30pm 25.0 22.1 12.2 44 7.3 ESE 19 26 10 14 1019.4 1019.4 0.0
25/12:00pm 24.8 21.3 12.1 45 7.2 ESE 22 28 12 15 1020.0 1020.0 0.0
25/11:30am 24.6 20.8 12.5 46 6.9 ESE 24 30 13 16 1020.5 1020.5 0.0
25/11:00am 24.3 20.4 13.2 50 6.4 SE 26 33 14 18 1020.9 1020.9 0.0
25/10:30am 23.4 19.3 13.8 54 5.6 SE 28 33 15 18 1021.2 1021.2 0.0
25/10:00am 22.6 18.7 13.4 56 5.3 SE 26 33 14 18 1021.4 1021.4 0.0
25/09:30am 22.0 18.0 14.1 61 4.6 ESE 28 35 15 19 1021.5 1021.5 0.0
25/09:00am 21.9 19.0 14.0 61 4.6 SE 22 32 12 17 1021.3 1021.3 -
25/08:30am 21.2 19.0 14.8 67 3.8 SE 20 28 11 15 1021.2 1021.2 -
25/08:00am 20.3 18.2 15.3 73 2.9 SSE 20 28 11 15 1020.9 1020.9 -
25/07:30am 17.8 17.4 15.2 85 1.5 SSE 11 20 6 11 1020.8 1020.8 -
25/07:00am 14.1 13.4 13.3 95 0.4 SW 9 9 5 5 1020.6 1020.6 -
25/06:30am 13.8 13.3 12.7 93 0.6 SW 7 9 4 5 1020.4 1020.4 -
25/06:00am 14.2 13.8 13.1 93 0.6 SW 7 9 4 5 1020.1 1020.1 0.0
25/05:30am 14.9 14.3 13.6 92 0.7 SW 9 11 5 6 1020.0 1020.0 0.0
25/05:00am 17.4 16.9 15.0 86 1.4 SSE 11 15 6 8 1019.7 1019.7 0.0
25/04:30am 17.5 16.4 15.3 87 1.3 SSE 15 17 8 9 1019.4 1019.4 0.0
25/04:00am 17.4 16.9 14.9 85 1.4 SSE 11 15 6 8 1019.5 1019.5 0.0
25/03:30am 17.4 16.6 15.0 86 1.4 SE 13 15 7 8 1019.4 1019.4 0.0
25/03:00am 17.5 17.1 15.3 87 1.3 SE 11 13 6 7 1019.6 1019.6 0.0
25/02:30am 17.0 16.5 14.8 87 1.3 SE 11 15 6 8 1019.7 1019.7 0.0
25/02:00am 17.2 16.7 14.8 86 1.4 SE 11 13 6 7 1019.7 1019.7 0.0
25/01:30am 17.7 17.0 15.3 86 1.4 SE 13 17 7 9 1019.8 1019.8 0.0
25/01:00am 17.9 17.8 15.9 88 1.2 SE 11 13 6 7 1020.0 1020.0 0.0
25/12:30am 17.6 18.1 15.6 88 1.2 SE 7 11 4 6 1020.3 1020.3 0.0
25/12:00am 17.9 17.6 15.5 86 1.4 SE 11 15 6 8 1020.3 1020.3 0.0
 
Date/Time
EST
Temp
°C
App
Temp
°C
Dew
Point
°C
Rel
Hum
%
Delta-T
°C
Wind Press
QNH
hPa
Press
MSL
hPa
Rain since
9am
mm
Dir  Spd
km/h
Gust
km/h
Spd
kts
Gust
kts
24/11:30pm 18.7 17.8 15.9 84 1.7 SE 15 19 8 10 1020.2 1020.2 0.0
24/11:00pm 19.1 18.4 16.3 84 1.7 SE 15 19 8 10 1020.4 1020.4 0.0
24/10:30pm 19.3 19.0 16.5 84 1.7 SE 13 17 7 9 1020.3 1020.3 0.0
24/10:00pm 19.5 18.8 16.3 82 1.9 SE 15 17 8 9 1020.2 1020.2 0.0
24/09:30pm 19.5 19.1 16.2 81 2.0 SE 13 19 7 10 1020.2 1020.2 0.0
24/09:00pm 19.6 18.7 15.9 79 2.2 SE 15 17 8 9 1020.0 1020.0 0.0
24/08:30pm 20.1 19.4 15.3 74 2.8 SE 13 17 7 9 1019.8 1019.8 0.0
24/08:00pm 21.4 19.5 15.7 70 3.4 ESE 20 26 11 14 1019.5 1019.5 0.0
24/07:30pm 21.6 19.6 15.4 68 3.7 E 20 28 11 15 1019.1 1019.1 0.0
24/07:00pm 21.7 19.6 15.1 66 3.9 E 20 28 11 15 1018.7 1018.7 0.0
24/06:30pm 22.0 19.2 14.4 62 4.5 E 22 28 12 15 1018.4 1018.4 0.0
24/06:00pm 22.1 19.3 14.2 61 4.6 E 22 30 12 16 1018.2 1018.2 0.0
24/05:30pm 22.6 19.4 14.2 59 4.9 E 24 35 13 19 1017.8 1017.8 0.0

Other Formats:

Comma delimited format used in spreadsheet applications
http://www.bom.gov.au/fwo/IDQ60801/IDQ60801.94383.axf

JavaScript Object Notation format (JSON) in row-major order
http://www.bom.gov.au/fwo/IDQ60801/IDQ60801.94383.json